createdAt,value
2023-02-05T00:00:20.048Z,6.12
2023-02-05T00:02:48.613Z,6.17
2023-02-05T00:05:17.049Z,6.39
2023-02-05T00:07:45.471Z,6.41
2023-02-05T00:10:14.201Z,6.59
2023-02-05T00:12:42.685Z,6.69
2023-02-05T00:15:12.859Z,6.48
2023-02-05T00:17:41.264Z,6.71
2023-02-05T00:20:11.442Z,6.67
2023-02-05T00:22:39.813Z,6.64
2023-02-05T00:25:09.025Z,6.70
2023-02-05T00:27:37.439Z,6.72
2023-02-05T00:30:07.235Z,6.69
2023-02-05T00:32:37.618Z,6.67
2023-02-05T00:35:07.442Z,6.74
2023-02-05T00:37:35.882Z,6.69
2023-02-05T00:40:04.550Z,6.60
2023-02-05T00:42:33.789Z,6.47
2023-02-05T00:45:02.445Z,6.59
2023-02-05T00:47:30.969Z,6.67
2023-02-05T00:50:00.772Z,6.63
2023-02-05T00:52:29.203Z,6.35
2023-02-05T00:54:57.784Z,6.66
2023-02-05T00:57:26.485Z,6.67
2023-02-05T00:59:55.076Z,6.64
2023-02-05T01:02:25.256Z,6.74
2023-02-05T01:04:53.986Z,6.54
2023-02-05T01:07:24.131Z,6.59
2023-02-05T01:09:52.724Z,6.64
2023-02-05T01:12:21.571Z,6.59
2023-02-05T01:14:50.175Z,6.49
2023-02-05T01:17:19.047Z,6.37
2023-02-05T01:19:47.854Z,6.21
2023-02-05T01:22:16.234Z,5.98
2023-02-05T01:24:46.314Z,6.05
2023-02-05T01:27:14.868Z,6.16
2023-02-05T01:29:43.218Z,6.07
2023-02-05T01:32:11.643Z,6.22
2023-02-05T01:34:40.178Z,6.26
2023-02-05T01:37:08.621Z,6.01
2023-02-05T01:39:37.484Z,6.02
2023-02-05T01:42:19.413Z,5.98
2023-02-05T01:45:36.196Z,6.03
2023-02-05T01:48:06.982Z,6.09
2023-02-05T01:50:40.917Z,6.04
2023-02-05T01:53:14.860Z,5.93
2023-02-05T01:55:52.819Z,5.88
2023-02-05T01:58:23.047Z,6.16
2023-02-05T02:00:51.833Z,5.99
2023-02-05T02:03:20.419Z,6.02
2023-02-05T02:05:48.970Z,5.82
2023-02-05T02:08:17.365Z,5.80
2023-02-05T02:10:48.136Z,5.72
2023-02-05T02:13:17.055Z,5.62
2023-02-05T02:15:47.913Z,5.66
2023-02-05T02:18:28.638Z,5.75
2023-02-05T02:21:50.661Z,5.59
2023-02-05T02:25:12.263Z,5.60
2023-02-05T02:27:49.108Z,5.52
2023-02-05T02:30:25.631Z,5.59
2023-02-05T02:33:05.708Z,5.41
2023-02-05T02:35:45.981Z,5.63
2023-02-05T02:38:23.211Z,5.52
2023-02-05T02:40:56.057Z,5.41
2023-02-05T02:43:35.684Z,5.48
2023-02-05T02:46:10.445Z,5.42
2023-02-05T02:48:42.836Z,5.67
2023-02-05T02:51:12.912Z,5.51
2023-02-05T02:53:47.562Z,5.48
2023-02-05T02:56:18.007Z,5.55
2023-02-05T02:58:52.051Z,5.52
2023-02-05T03:01:25.110Z,5.45
2023-02-05T03:03:59.531Z,5.08
2023-02-05T03:06:30.832Z,5.21
2023-02-05T03:09:05.210Z,5.06
2023-02-05T03:11:35.420Z,5.37
2023-02-05T03:14:05.466Z,5.64
2023-02-05T03:16:38.623Z,5.55
2023-02-05T03:19:07.358Z,5.47
2023-02-05T03:21:42.296Z,5.61
2023-02-05T03:24:11.354Z,5.51
2023-02-05T03:26:40.169Z,5.21
2023-02-05T03:29:28.801Z,5.39
2023-02-05T03:32:10.648Z,5.41
2023-02-05T03:34:52.723Z,5.54
2023-02-05T03:37:38.985Z,5.49
2023-02-05T03:40:17.733Z,5.61
2023-02-05T03:42:57.147Z,5.64
2023-02-05T03:45:42.833Z,5.40
2023-02-05T03:48:35.074Z,5.40
2023-02-05T03:51:20.115Z,5.21
2023-02-05T03:54:01.866Z,5.51
2023-02-05T03:56:40.827Z,5.33
2023-02-05T03:59:10.584Z,5.46
2023-02-05T04:01:40.846Z,5.46
2023-02-05T04:04:10.303Z,5.42
2023-02-05T04:06:40.700Z,5.41
2023-02-05T04:09:11.721Z,5.40
2023-02-05T04:11:41.288Z,5.50
2023-02-05T04:14:10.106Z,5.44
2023-02-05T04:16:41.288Z,5.49
2023-02-05T04:19:09.795Z,5.33
2023-02-05T04:21:38.351Z,5.50
2023-02-05T04:24:08.364Z,5.17
2023-02-05T04:26:39.746Z,5.25
2023-02-05T04:29:08.941Z,5.26
2023-02-05T04:31:44.297Z,5.37
2023-02-05T04:34:13.694Z,5.42
2023-02-05T04:36:42.746Z,5.52
2023-02-05T04:39:11.417Z,5.25
2023-02-05T04:41:40.015Z,5.48
2023-02-05T04:44:08.474Z,5.17
2023-02-05T04:46:37.071Z,5.37
2023-02-05T04:49:07.075Z,5.34
2023-02-05T04:51:35.627Z,5.24
2023-02-05T04:54:04.271Z,5.13
2023-02-05T04:56:32.739Z,5.20
2023-02-05T04:59:01.157Z,5.23
2023-02-05T05:01:29.627Z,5.41
2023-02-05T05:03:58.221Z,5.35
2023-02-05T05:06:28.935Z,5.33
2023-02-05T05:08:57.681Z,5.51
2023-02-05T05:11:26.015Z,5.46
2023-02-05T05:13:54.610Z,5.23
2023-02-05T05:16:22.960Z,5.50
2023-02-05T05:18:53.512Z,5.00
2023-02-05T05:21:23.530Z,4.66
2023-02-05T05:23:59.636Z,3.85
2023-02-05T05:26:29.520Z,3.47
2023-02-05T05:29:00.299Z,4.33
2023-02-05T05:31:31.380Z,4.35
2023-02-05T05:34:00.174Z,4.02
2023-02-05T05:36:28.692Z,4.33
2023-02-05T05:39:21.436Z,4.06
2023-02-05T05:42:10.436Z,4.22
2023-02-05T05:44:39.170Z,4.08
2023-02-05T05:47:07.636Z,4.00
2023-02-05T05:49:36.956Z,3.51
2023-02-05T05:52:06.155Z,3.94
2023-02-05T05:54:36.395Z,3.66
2023-02-05T05:57:05.543Z,3.89
2023-02-05T05:59:34.165Z,3.82
2023-02-05T06:02:06.582Z,3.81
2023-02-05T06:04:36.456Z,3.69
2023-02-05T06:07:05.393Z,3.58
2023-02-05T06:09:37.012Z,3.61
2023-02-05T06:12:08.678Z,3.49
2023-02-05T06:14:38.344Z,3.50
2023-02-05T06:17:07.461Z,3.53
2023-02-05T06:19:39.529Z,3.50
2023-02-05T06:22:09.463Z,3.44
2023-02-05T06:24:41.478Z,3.62
2023-02-05T06:27:12.556Z,3.65
2023-02-05T06:29:48.701Z,3.61
2023-02-05T06:32:17.187Z,3.58
2023-02-05T06:34:45.619Z,3.43
2023-02-05T06:37:18.215Z,3.48
2023-02-05T06:39:48.251Z,3.62
2023-02-05T06:42:18.911Z,3.48
2023-02-05T06:44:48.630Z,3.15
2023-02-05T06:47:17.611Z,3.25
2023-02-05T06:49:48.760Z,3.40
2023-02-05T06:52:17.705Z,3.27
2023-02-05T06:54:48.012Z,3.04
2023-02-05T06:57:16.372Z,3.32
2023-02-05T06:59:44.886Z,3.38
2023-02-05T07:02:15.275Z,3.30
2023-02-05T07:04:43.629Z,3.36
2023-02-05T07:07:12.042Z,3.17
2023-02-05T07:09:40.452Z,3.49
2023-02-05T07:12:10.509Z,3.45
2023-02-05T07:14:39.214Z,3.38
2023-02-05T07:17:08.436Z,3.35
2023-02-05T07:19:37.600Z,3.04
2023-02-05T07:22:06.376Z,3.41
2023-02-05T07:28:54.998Z,3.48
2023-02-05T07:31:23.536Z,3.52
2023-02-05T07:49:26.236Z,3.63
2023-02-05T07:51:54.633Z,3.61
2023-02-05T07:54:23.475Z,3.57
2023-02-05T07:56:52.000Z,3.81
2023-02-05T07:59:20.517Z,3.64
2023-02-05T08:01:50.687Z,3.58
2023-02-05T08:12:59.862Z,3.66
2023-02-05T08:15:28.371Z,3.76
2023-02-05T08:17:58.107Z,3.74
2023-02-05T08:25:20.337Z,3.97
2023-02-05T09:03:29.013Z,4.16
2023-02-05T09:05:57.692Z,4.35
2023-02-05T09:08:27.488Z,4.44
2023-02-05T09:10:58.008Z,4.64
2023-02-05T09:13:27.192Z,4.48
2023-02-05T09:15:55.546Z,4.56
2023-02-05T09:18:24.042Z,4.46
2023-02-05T09:20:55.234Z,4.24
2023-02-05T09:23:24.136Z,4.44
2023-02-05T09:25:52.498Z,4.48
2023-02-05T09:28:20.902Z,4.46
2023-02-05T09:30:49.368Z,4.45
2023-02-05T09:33:17.770Z,4.49
2023-02-05T09:35:46.207Z,4.48
2023-02-05T09:38:18.274Z,4.57
2023-02-05T09:40:59.276Z,4.56
2023-02-05T09:43:50.592Z,4.94
2023-02-05T09:46:28.809Z,5.01
2023-02-05T09:49:04.376Z,5.17
2023-02-05T09:51:38.066Z,5.02
2023-02-05T09:54:18.979Z,5.07
2023-02-05T09:56:49.528Z,5.34
2023-02-05T09:59:22.485Z,5.35
2023-02-05T10:01:54.471Z,5.34
2023-02-05T10:04:23.489Z,5.35
2023-02-05T10:07:14.970Z,5.64
2023-02-05T10:10:22.716Z,5.73
2023-02-05T10:13:26.928Z,5.44
2023-02-05T10:16:38.521Z,5.61
2023-02-05T10:19:35.411Z,5.45
2023-02-05T10:22:17.022Z,5.73
2023-02-05T10:25:28.698Z,5.59
2023-02-05T10:28:07.882Z,5.71
2023-02-05T10:30:45.453Z,5.62
2023-02-05T10:33:19.960Z,5.73
2023-02-05T10:36:00.232Z,5.71
2023-02-05T10:38:35.870Z,5.79
2023-02-05T10:41:15.442Z,5.89
2023-02-05T10:43:50.277Z,5.98
2023-02-05T10:46:19.591Z,5.90
2023-02-05T10:48:52.059Z,5.85
2023-02-05T10:51:30.112Z,6.02
2023-02-05T10:53:59.388Z,5.89
2023-02-05T10:56:29.441Z,5.56
2023-02-05T10:59:01.707Z,5.40
2023-02-05T11:01:36.125Z,5.40
2023-02-05T11:04:09.260Z,5.37
2023-02-05T11:06:42.402Z,5.61
2023-02-05T11:09:35.333Z,5.64
2023-02-05T11:12:16.010Z,5.63
2023-02-05T11:14:49.282Z,5.66
2023-02-05T11:17:24.541Z,5.87
2023-02-05T11:19:55.739Z,5.60
2023-02-05T11:22:29.514Z,6.04
2023-02-05T11:25:16.322Z,5.92
2023-02-05T11:27:55.765Z,5.99
2023-02-05T11:31:01.267Z,6.26
2023-02-05T11:33:31.517Z,6.08
2023-02-05T11:36:04.124Z,6.06
2023-02-05T11:38:45.261Z,6.03
2023-02-05T11:41:27.299Z,6.15
2023-02-05T11:44:00.560Z,6.31
2023-02-05T11:46:35.826Z,6.50
2023-02-05T11:49:06.172Z,6.50
2023-02-05T11:51:45.883Z,6.44
2023-02-05T11:54:22.557Z,6.58
2023-02-05T11:57:24.423Z,6.27
2023-02-05T12:00:00.239Z,6.08
2023-02-05T12:02:37.728Z,6.33
2023-02-05T12:05:18.500Z,6.78
2023-02-05T12:07:53.080Z,6.96
2023-02-05T12:10:34.062Z,6.84
2023-02-05T12:13:15.837Z,6.60
2023-02-05T12:16:01.083Z,6.57
2023-02-05T12:18:48.951Z,6.64
2023-02-05T12:21:28.694Z,6.57
2023-02-05T12:24:45.154Z,6.40
2023-02-05T12:27:28.662Z,6.28
2023-02-05T12:30:22.227Z,6.43
2023-02-05T12:33:12.879Z,6.39
2023-02-05T12:36:01.225Z,6.53
2023-02-05T12:38:47.991Z,6.54
2023-02-05T12:41:31.721Z,6.61
2023-02-05T12:44:12.957Z,6.55
2023-02-05T12:46:56.812Z,6.94
2023-02-05T12:49:48.274Z,6.88
2023-02-05T12:52:34.452Z,6.82
2023-02-05T12:55:22.737Z,6.86
2023-02-05T12:57:57.610Z,7.11
2023-02-05T13:00:30.704Z,7.15
2023-02-05T13:03:08.519Z,7.44
2023-02-05T13:05:43.624Z,7.25
2023-02-05T13:08:18.642Z,7.38
2023-02-05T13:10:54.792Z,7.26
2023-02-05T13:13:29.323Z,6.91
2023-02-05T13:16:05.947Z,7.13
2023-02-05T13:18:39.621Z,6.90
2023-02-05T13:21:34.458Z,6.77
2023-02-05T13:24:37.429Z,6.70
2023-02-05T13:27:32.938Z,6.67
2023-02-05T13:30:04.795Z,6.99
2023-02-05T13:32:35.422Z,7.20
2023-02-05T13:35:03.906Z,7.53
2023-02-05T13:37:56.636Z,7.57
2023-02-05T13:41:17.378Z,7.54
2023-02-05T13:44:21.036Z,7.55
2023-02-05T13:47:28.122Z,7.30
2023-02-05T13:50:40.768Z,7.40
2023-02-05T13:53:30.238Z,7.10
2023-02-05T13:56:34.158Z,6.93
2023-02-05T13:59:05.644Z,6.80
2023-02-05T14:01:46.168Z,6.58
2023-02-05T14:04:24.954Z,6.61
2023-02-05T14:07:02.996Z,6.64
2023-02-05T14:09:39.384Z,6.64
2023-02-05T14:12:11.145Z,6.65
2023-02-05T14:14:41.506Z,6.77
2023-02-05T14:17:54.864Z,6.76
2023-02-05T14:20:40.542Z,7.01
2023-02-05T14:24:00.255Z,7.25
2023-02-05T14:26:51.434Z,7.33
2023-02-05T14:29:44.050Z,7.14
2023-02-05T14:32:13.983Z,7.03
2023-02-05T14:34:48.790Z,6.72
2023-02-05T14:37:38.590Z,6.62
2023-02-05T14:40:27.522Z,6.29
2023-02-05T14:43:09.870Z,6.26
2023-02-05T14:45:46.357Z,6.34
2023-02-05T14:48:25.665Z,6.30
2023-02-05T14:51:07.701Z,6.28
2023-02-05T14:53:39.666Z,6.25
2023-02-05T14:56:08.843Z,6.21
2023-02-05T14:58:44.319Z,6.11
2023-02-05T15:01:44.113Z,6.29
2023-02-05T15:04:40.656Z,6.32
2023-02-05T15:07:15.668Z,6.09
2023-02-05T15:09:51.878Z,5.89
2023-02-05T15:12:42.808Z,5.89
2023-02-05T15:15:33.701Z,5.81
2023-02-05T15:18:12.758Z,5.73
2023-02-05T15:20:43.001Z,5.37
2023-02-05T15:23:35.046Z,5.32
2023-02-05T15:26:08.038Z,5.46
2023-02-05T15:28:42.262Z,5.34
2023-02-05T15:31:34.697Z,5.34
2023-02-05T15:34:29.604Z,5.34
2023-02-05T15:37:06.382Z,5.44
2023-02-05T15:39:46.705Z,5.47
2023-02-05T15:42:20.303Z,5.34
2023-02-05T15:44:48.873Z,5.21
2023-02-05T15:47:24.924Z,5.20
2023-02-05T15:49:57.451Z,5.11
2023-02-05T15:52:28.898Z,5.21
2023-02-05T15:55:00.564Z,4.99
2023-02-05T15:57:32.281Z,4.88
2023-02-05T16:00:03.726Z,4.96
2023-02-05T16:02:34.229Z,4.78
2023-02-05T16:05:17.391Z,4.87
2023-02-05T16:07:51.928Z,5.09
2023-02-05T16:10:23.406Z,5.07
2023-02-05T16:13:02.022Z,4.95
2023-02-05T16:15:38.333Z,4.88
2023-02-05T16:18:18.166Z,4.80
2023-02-05T16:20:51.736Z,4.81
2023-02-05T16:23:29.019Z,4.70
2023-02-05T16:26:02.530Z,4.71
2023-02-05T16:28:39.518Z,4.74
2023-02-05T16:31:11.510Z,4.73
2023-02-05T16:33:46.845Z,4.83
2023-02-05T16:36:22.120Z,4.82
2023-02-05T16:38:56.857Z,4.63
2023-02-05T16:41:29.805Z,4.39
2023-02-05T16:44:03.748Z,4.31
2023-02-05T16:46:33.335Z,4.33
2023-02-05T16:49:05.618Z,4.28
2023-02-05T16:51:55.934Z,4.22
2023-02-05T16:54:34.888Z,4.25
2023-02-05T16:57:09.637Z,4.29
2023-02-05T16:59:51.612Z,4.00
2023-02-05T17:02:34.384Z,4.03
2023-02-05T17:05:07.109Z,3.94
2023-02-05T17:07:36.005Z,3.83
2023-02-05T17:10:20.728Z,3.81
2023-02-05T17:12:57.999Z,3.90
2023-02-05T17:15:37.591Z,3.81
2023-02-05T17:18:34.223Z,3.84
2023-02-05T17:21:25.402Z,3.82
2023-02-05T17:23:56.966Z,3.86
2023-02-05T17:26:27.042Z,3.71
2023-02-05T17:28:58.102Z,3.55
2023-02-05T17:31:29.399Z,3.54
2023-02-05T17:33:59.984Z,3.44
2023-02-05T17:36:29.726Z,3.54
2023-02-05T17:38:58.500Z,3.33
2023-02-05T17:41:49.122Z,3.50
2023-02-05T17:44:18.403Z,3.34
2023-02-05T17:46:47.561Z,3.39
2023-02-05T17:49:16.048Z,3.34
2023-02-05T17:51:45.935Z,3.32
2023-02-05T17:54:16.595Z,3.21
2023-02-05T17:56:46.856Z,3.32
2023-02-05T17:59:18.691Z,3.20
2023-02-05T18:01:51.746Z,3.35
2023-02-05T18:04:20.881Z,3.32
2023-02-05T18:06:50.942Z,3.19
2023-02-05T18:09:20.096Z,3.25
2023-02-05T18:11:48.690Z,3.28
2023-02-05T18:14:17.377Z,3.27
2023-02-05T18:16:46.178Z,3.19
2023-02-05T18:19:14.900Z,3.21
2023-02-05T18:21:44.046Z,3.13
2023-02-05T18:24:13.842Z,3.06
2023-02-05T18:26:42.193Z,3.01
2023-02-05T18:29:10.778Z,2.98
2023-02-05T18:31:39.398Z,3.08
2023-02-05T18:34:08.584Z,3.08
2023-02-05T18:36:37.057Z,2.95
2023-02-05T18:39:05.758Z,3.06
2023-02-05T18:41:35.635Z,3.05
2023-02-05T18:44:04.142Z,3.04
2023-02-05T18:46:32.526Z,3.07
2023-02-05T18:49:01.316Z,3.05
2023-02-05T18:51:30.052Z,3.03
2023-02-05T18:53:59.629Z,3.01
2023-02-05T18:56:29.732Z,2.72
2023-02-05T18:59:02.924Z,2.75
2023-02-05T19:01:32.625Z,2.63
2023-02-05T19:04:03.674Z,2.89
2023-02-05T19:06:32.686Z,2.81
2023-02-05T19:09:02.204Z,2.92
2023-02-05T19:11:31.984Z,2.78
2023-02-05T19:14:05.673Z,2.84
2023-02-05T19:16:36.976Z,2.87
2023-02-05T19:19:06.271Z,2.82
2023-02-05T19:21:36.289Z,2.73
2023-02-05T19:24:07.577Z,2.80
2023-02-05T19:26:38.898Z,2.70
2023-02-05T19:29:13.970Z,2.67
2023-02-05T19:31:43.144Z,2.73
2023-02-05T19:34:12.259Z,2.65
2023-02-05T19:36:40.958Z,2.86
2023-02-05T19:39:12.282Z,2.80
2023-02-05T19:41:41.295Z,2.80
2023-02-05T19:44:11.186Z,2.85
2023-02-05T19:46:44.153Z,2.89
2023-02-05T19:49:15.771Z,2.97
2023-02-05T19:51:47.032Z,2.98
2023-02-05T19:54:16.102Z,2.87
2023-02-05T19:56:45.370Z,2.96
2023-02-05T19:59:16.881Z,2.98
2023-02-05T20:01:46.608Z,3.11
2023-02-05T20:04:18.021Z,3.06
2023-02-05T20:06:47.782Z,3.26
2023-02-05T20:09:18.336Z,3.27
2023-02-05T20:11:49.887Z,3.57
2023-02-05T20:14:20.384Z,3.35
2023-02-05T20:16:49.227Z,3.48
2023-02-05T20:19:19.005Z,3.47
2023-02-05T20:21:48.314Z,3.47
2023-02-05T20:24:17.360Z,3.40
2023-02-05T20:26:48.405Z,3.40
2023-02-05T20:29:40.336Z,3.54
2023-02-05T20:32:11.518Z,3.41
2023-02-05T20:34:44.722Z,3.34
2023-02-05T20:37:13.385Z,3.09
2023-02-05T20:39:42.856Z,3.26
2023-02-05T20:42:13.574Z,3.25
2023-02-05T20:44:43.726Z,3.04
2023-02-05T20:47:15.774Z,3.24
2023-02-05T20:49:44.398Z,3.26
2023-02-05T20:52:13.411Z,3.27
2023-02-05T20:54:42.156Z,3.32
2023-02-05T20:57:10.792Z,3.35
2023-02-05T20:59:39.220Z,3.31
2023-02-05T21:02:08.110Z,3.31
2023-02-05T21:04:38.557Z,3.16
2023-02-05T21:07:07.204Z,3.25
2023-02-05T21:09:35.760Z,2.89
2023-02-05T21:12:04.430Z,3.13
2023-02-05T21:14:35.305Z,3.10
2023-02-05T21:17:03.738Z,2.96
2023-02-05T21:19:32.294Z,2.93
2023-02-05T21:22:02.147Z,2.84
2023-02-05T21:24:30.650Z,2.84
2023-02-05T21:26:59.061Z,2.75
2023-02-05T21:29:27.566Z,2.61
2023-02-05T21:31:56.443Z,2.54
2023-02-05T21:34:27.261Z,2.36
2023-02-05T21:36:56.799Z,2.43
2023-02-05T21:39:27.634Z,2.22
2023-02-05T21:41:56.348Z,2.12
2023-02-05T21:44:24.722Z,2.22
2023-02-05T21:46:54.671Z,2.11
2023-02-05T21:49:23.337Z,2.20
2023-02-05T21:51:53.476Z,2.15
2023-02-05T21:54:25.406Z,2.14
2023-02-05T21:56:55.935Z,1.95
2023-02-05T21:59:24.693Z,1.94
2023-02-05T22:01:53.120Z,1.84
2023-02-05T22:04:21.581Z,1.80
2023-02-05T22:06:51.439Z,1.79
2023-02-05T22:09:20.574Z,1.84
2023-02-05T22:11:51.294Z,1.71
2023-02-05T22:14:21.116Z,1.81
2023-02-05T22:16:49.719Z,1.86
2023-02-05T22:19:18.104Z,1.80
2023-02-05T22:21:46.449Z,1.78
2023-02-05T22:24:17.516Z,1.60
2023-02-05T22:26:46.597Z,1.54
2023-02-05T22:29:17.363Z,1.49
2023-02-05T22:31:51.043Z,1.37
2023-02-05T22:34:21.268Z,1.43
2023-02-05T22:36:49.670Z,1.58
2023-02-05T22:39:18.039Z,1.65
2023-02-05T22:41:46.627Z,1.68
2023-02-05T22:44:14.993Z,1.32
2023-02-05T22:46:46.041Z,1.34
2023-02-05T22:49:15.740Z,0.99
2023-02-05T22:51:45.430Z,0.88
2023-02-05T22:54:15.933Z,0.92
2023-02-05T22:56:44.769Z,1.00
2023-02-05T22:59:13.464Z,1.26
2023-02-05T23:01:41.844Z,1.29
2023-02-05T23:04:12.209Z,1.33
2023-02-05T23:06:42.856Z,1.30
2023-02-05T23:09:14.548Z,1.14
2023-02-05T23:11:43.542Z,1.32
2023-02-05T23:14:14.390Z,1.19
2023-02-05T23:16:45.696Z,1.22
2023-02-05T23:19:18.445Z,1.32
2023-02-05T23:21:47.626Z,1.50
2023-02-05T23:24:17.801Z,1.34
2023-02-05T23:26:50.765Z,1.40
2023-02-05T23:29:19.677Z,1.49
2023-02-05T23:31:48.506Z,1.42
2023-02-05T23:34:18.252Z,1.36
2023-02-05T23:36:46.593Z,1.35
2023-02-05T23:39:15.013Z,1.49
2023-02-05T23:41:43.385Z,1.54
2023-02-05T23:44:15.531Z,1.57
2023-02-05T23:46:45.285Z,1.45
2023-02-05T23:49:14.624Z,1.51
2023-02-05T23:51:44.393Z,1.48
2023-02-05T23:54:13.378Z,1.53
2023-02-05T23:56:42.297Z,1.55
2023-02-05T23:59:13.224Z,1.70
